X  CloseMetar Aviation Weather Data     KAST Astoria Regional

Temperature

57°F Temperature

55°F Dewpoint

94% Humidity



Wind

 5 MPH

 8 KM/H

 2 M/S

 4 KTS



220°
South West
Current Conditions

Mostly Scattered Clouds Mostly Scattered Clouds
Pressure 1018.62 (hPa) - 30.08 (in)
Visibility 10 (mi) - 16.1 (km)
Airport
Airport-code KAST

Location Astoria Regional 20 (mi)

Metar:
KAST 201155Z AUTO 22004KT 10SM SCT021 OVC030 14/13 A3008 RMK AO2 RAB10E22 SLP184 P0000 60000 T01440133 10156 20139 56006

Time: 09-20-2019 04:55